createdAt,value
2017-08-17T16:15:40.552Z,54.52
2017-08-17T16:16:40.378Z,55.10
2017-08-17T16:17:40.120Z,54.78
2017-08-17T16:18:40.241Z,55.27
2017-08-17T16:19:41.462Z,55.85
2017-08-17T16:20:40.045Z,55.46
2017-08-17T16:21:39.996Z,56.24
2017-08-17T16:22:39.947Z,56.04
2017-08-17T16:23:39.841Z,55.27
2017-08-17T16:24:39.805Z,55.36
2017-08-17T16:25:39.581Z,55.07
2017-08-17T16:26:39.621Z,55.10
2017-08-17T16:27:39.381Z,54.52
2017-08-17T16:28:39.516Z,54.90
2017-08-17T16:29:39.390Z,55.68
2017-08-17T16:30:39.383Z,53.47
2017-08-17T16:31:39.253Z,53.20
2017-08-17T16:32:39.185Z,51.84
2017-08-17T16:33:38.966Z,52.53
2017-08-17T16:34:39.019Z,52.33
2017-08-17T16:35:39.019Z,52.14
2017-08-17T16:36:38.751Z,52.11
2017-08-17T16:37:38.780Z,52.67
2017-08-17T16:38:38.639Z,52.59
2017-08-17T16:39:38.643Z,52.50
2017-08-17T16:40:38.621Z,52.59
2017-08-17T16:41:38.428Z,52.98
2017-08-17T16:42:38.330Z,52.31
2017-08-17T16:43:38.356Z,52.40
2017-08-17T16:44:38.279Z,52.40
2017-08-17T16:45:38.287Z,52.50
2017-08-17T16:46:38.131Z,51.82
2017-08-17T16:47:38.082Z,52.28
2017-08-17T16:48:38.029Z,53.06
2017-08-17T16:49:37.898Z,52.76
2017-08-17T16:50:37.878Z,52.89
2017-08-17T16:51:37.749Z,52.21
2017-08-17T16:52:37.666Z,52.69
2017-08-17T16:53:37.608Z,52.96
2017-08-17T16:54:37.528Z,53.06
2017-08-17T16:55:37.513Z,52.59
2017-08-17T16:56:37.434Z,52.89
2017-08-17T16:57:37.134Z,52.50
2017-08-17T16:58:37.318Z,52.47
2017-08-17T16:59:37.155Z,52.37
2017-08-17T17:00:37.166Z,52.67
2017-08-17T17:01:36.961Z,53.25
2017-08-17T17:02:36.959Z,52.50
2017-08-17T17:03:36.955Z,51.70
2017-08-17T17:04:36.788Z,53.06
2017-08-17T17:05:44.732Z,52.19
2017-08-17T17:07:42.989Z,50.36
2017-08-17T17:08:42.856Z,50.95
2017-08-17T17:09:55.169Z,50.78
2017-08-17T17:12:22.372Z,46.78
2017-08-17T17:13:17.166Z,44.48
2017-08-17T17:14:17.092Z,44.90
2017-08-17T17:15:17.110Z,45.09
2017-08-17T17:16:16.928Z,44.24
2017-08-17T17:17:19.693Z,44.95
2017-08-17T17:18:37.271Z,45.42
2017-08-17T17:19:37.092Z,47.03
2017-08-17T17:20:51.837Z,41.83
2017-08-17T17:21:51.832Z,37.90
2017-08-17T17:23:04.427Z,37.15
2017-08-17T17:24:04.319Z,37.21
2017-08-17T17:25:04.193Z,39.22
2017-08-17T17:26:04.126Z,38.16
2017-08-17T17:27:04.048Z,37.98
2017-08-17T17:51:43.206Z,47.15
2017-08-17T17:52:43.085Z,48.19
2017-08-17T17:53:43.081Z,47.13
2017-08-17T17:54:42.922Z,48.68
2017-08-17T17:55:42.896Z,48.78
